Pattaya, Thailand

12:20 AM ICT on September 05, 2015 (GMT +0700)
Pattaya | | Change Station
CLOSE
Current Station
Personal Weather Station
Location: Pattaya, CHONBURI
Elevation: 141 ft
Nearby Weather Stations

Elev 141 ft 12.93 °N, 100.91 °E | Updated 36 seconds ago

Mostly Cloudy
Mostly Cloudy
79.9 °F
Feels Like 86 °F
N
0.0
Wind Variable Wind from SSW
Gusts 0.0 mph

Today
High -- | Low -- °F
--% Chance of Precip.
Yesterday
High -- | Low -- °F
Precip. -- in
6:05 AM 6:25 PM
Waning Gibbous, 58% visible
Pressure 29.92 in
Visibility 5.6 miles
Clouds Few 2000 ft
Scattered Clouds 12000 ft
Mostly Cloudy 30000 ft
Heat Index 86 °F
Dew Point 77 °F
Humidity 91%
Rainfall 0.00 in
Snow Depth Not available.
UV 0 out of 12
Pollen Not available.
Air Quality Not available.
Flu Activity Not available.
METAR VTBU 041700Z 19005KT 9000 FEW020 SCT120 BKN300 28/24 Q1013 A2993
Pressure 29.92 in
Visibility 5.6 miles
Clouds Few 2000 ft
Scattered Clouds 12000 ft
Mostly Cloudy 30000 ft
Heat Index 86 °F
Dew Point 77 °F
Humidity 91%
Rainfall 0.00 in
Snow Depth Not available.
UV 0 out of 12
Pollen Not available.
Air Quality Not available.
Flu Activity Not available.
METAR VTBU 041700Z 19005KT 9000 FEW020 SCT120 BKN300 28/24 Q1013 A2993

10-Day Weather Forecast

×

Almanac

Astronomy

Sep. 05, 2015 Rise Set
Actual Time
Civil Twilight
Nautical Twilight
Astronomical Twilight
Moon
Length of Visible Light
Length of Day
Tomorrow will be .
, % of the Moon is Illuminated

Today's Extremes

Country Highs Country Lows

Community

WunderPhotos

Upload Photos

1,852,237 photos uploaded!

WunderBlogs® & News

Nearby

Air Quality

  Air Quality AQ Index Pollutant
Not available.

Snow Depth

Station Depth Elevation

Earthquake Activity

City Distance Mag. Time & Date
Minimum magnitude displayed is 2.5.

Coastal Water Temperatures

Place Temperature

Stations

Nearby Weather Stations

Station Location Temp. Windchill Dew Point Humidity Wind Precip. Elev Updated Type